Bookmark and Share
Track history (hours):
 

Cic Pride

Last reported at 2014-Apr-02 06:32 UTC. Time now 2014-Apr-18 13:22 UTC.
Position N 26°08' E 055°23'.
Warning: this ship's position is 16 days out of date.

Length 288 m; draft 10.9 m.

Type: Cargo ship. MMSI: 351111000.

NotesDate/timePositionNaut miles runAvg speedWind from/ knotsBaromVisibWave heightAir tempDewpointWater temp
2014-Apr-02 06:32N 26°08' E 055°23'1313.1
2014-Apr-02 05:33N 26°08' E 055°08'1313.3
2014-Apr-02 04:33N 26°09' E 054°53'1313.2
2014-Apr-02 03:33N 26°11' E 054°39'1313.0
2014-Apr-02 02:32N 26°14' E 054°25'1312.5
2014-Apr-02 01:32N 26°17' E 054°11'1212.0
2014-Apr-02 00:32N 26°21' E 053°58'2412.2
2014-Apr-01 22:32N 26°28' E 053°32'5412.5
2014-Apr-01 18:15N 26°53' E 052°39'4612.2
2014-Apr-01 14:27N 26°48' E 051°48'1212.8
2014-Apr-01 13:32N 26°45' E 051°35'2712.4
2014-Apr-01 11:22N 26°37' E 051°06'1011.7
2014-Apr-01 10:33N 26°29' E 050°59'1410.5
2014-Apr-01 09:10N 26°21' E 050°46'6 9.6
2014-Apr-01 08:32N 26°15' E 050°46'5 0.6
2014-Mar-31 23:26N 26°11' E 050°41'0 0.0
2014-Mar-31 02:20N 26°11' E 050°41'0 0.0
2014-Mar-31 01:29N 26°11' E 050°41'0 0.0
2014-Mar-31 00:32N 26°11' E 050°41'0 0.0
2014-Mar-30 23:26N 26°11' E 050°41'0 0.0
2014-Mar-30 22:17N 26°11' E 050°41'0 0.0
2014-Mar-30 21:32N 26°11' E 050°41'0 0.0
2014-Mar-30 05:31N 26°11' E 050°41'0 0.0
2014-Mar-30 04:10N 26°11' E 050°41'0 0.0
2014-Mar-29 17:28N 26°11' E 050°41'0 0.0
2014-Mar-28 20:34N 26°11' E 050°41'  

Dump ship's entire track history

sailing weather and tide predictions

Cic Pride — H9SQ — position and weather